Time;durP1;ratioP1;P1;durP2;ratioP2;P2;SDS_P1;SDS_P2;PMS_P1;PMS_P2;Temp;Humidity;BMP_temperature;BMP_pressure;BME280_temperature;BME280_humidity;BME280_pressure;Samples;Min_cycle;Max_cycle;Signal;HPM_P1;HPM_P2
2023/12/08 00:01:24;;;;;;;11.32;8.18;;;;;;;;;;5065288;28;20040;-79
2023/12/08 00:03:51;;;;;;;8.85;7.95;;;;;;;;;;5069413;28;20677;-79
2023/12/08 00:06:18;;;;;;;11.68;9.57;;;;;;;;;;5093226;28;20052;-79
2023/12/08 00:08:46;;;;;;;13.93;10.05;;;;;;;;;;5062630;28;20043;-79
2023/12/08 00:11:18;;;;;;;9.75;8.00;;;;;;;;;;5094004;28;20052;-79
2023/12/08 00:13:45;;;;;;;10.55;8.23;;;;;;;;;;5057156;28;20043;-79
2023/12/08 00:16:17;;;;;;;11.20;10.02;;;;;;;;;;5077268;28;20047;-79
2023/12/08 00:18:48;;;;;;;10.27;8.70;;;;;;;;;;5081644;28;20430;-79
2023/12/08 00:21:17;;;;;;;10.32;8.38;;;;;;;;;;5067121;28;20054;-79
2023/12/08 00:23:47;;;;;;;10.70;8.20;;;;;;;;;;5082343;28;20040;-79
2023/12/08 00:26:16;;;;;;;11.80;7.82;;;;;;;;;;5093700;28;20397;-79
2023/12/08 00:28:46;;;;;;;11.38;8.55;;;;;;;;;;5055922;28;20056;-79
2023/12/08 00:31:12;;;;;;;10.68;9.55;;;;;;;;;;5050619;28;20044;-79
2023/12/08 00:33:39;;;;;;;11.70;9.55;;;;;;;;;;5068510;28;20052;-79
2023/12/08 00:36:13;;;;;;;13.57;10.63;;;;;;;;;;5066255;28;20047;-79
2023/12/08 00:38:41;;;;;;;9.88;8.77;;;;;;;;;;5092653;28;20052;-79
2023/12/08 00:41:08;;;;;;;11.27;9.13;;;;;;;;;;5074846;28;20059;-79
2023/12/08 00:43:38;;;;;;;13.43;9.75;;;;;;;;;;5088358;28;20378;-79
2023/12/08 00:46:05;;;;;;;11.70;10.10;;;;;;;;;;5085455;28;20051;-79
2023/12/08 00:48:32;;;;;;;12.35;8.98;;;;;;;;;;5056785;28;20063;-79
2023/12/08 00:51:02;;;;;;;11.07;9.20;;;;;;;;;;5074625;28;20048;-79
2023/12/08 00:53:33;;;;;;;13.73;9.85;;;;;;;;;;5053233;28;20051;-79
2023/12/08 00:56:03;;;;;;;11.18;8.98;;;;;;;;;;5060099;28;20047;-79
2023/12/08 00:58:30;;;;;;;11.40;9.88;;;;;;;;;;5066127;28;20049;-79
2023/12/08 01:00:57;;;;;;;10.82;8.88;;;;;;;;;;5056390;28;20060;-79
2023/12/08 01:03:24;;;;;;;12.40;8.80;;;;;;;;;;5057564;28;20048;-79
2023/12/08 01:05:51;;;;;;;10.90;7.57;;;;;;;;;;5075825;28;20040;-79
2023/12/08 01:08:23;;;;;;;12.00;8.85;;;;;;;;;;5054195;28;20063;-79
2023/12/08 01:10:54;;;;;;;10.05;7.57;;;;;;;;;;5056709;28;20055;-79
2023/12/08 01:13:21;;;;;;;10.57;8.35;;;;;;;;;;5051050;28;20045;-79
2023/12/08 01:15:54;;;;;;;11.48;7.82;;;;;;;;;;5081064;28;20046;-79
2023/12/08 01:18:23;;;;;;;13.98;8.52;;;;;;;;;;5057385;28;20050;-79
2023/12/08 01:20:54;;;;;;;10.38;7.22;;;;;;;;;;5067968;28;20055;-79
2023/12/08 01:23:21;;;;;;;11.80;8.77;;;;;;;;;;5063418;28;20056;-79
2023/12/08 01:25:48;;;;;;;11.45;8.63;;;;;;;;;;5067588;28;20485;-79
2023/12/08 01:28:17;;;;;;;9.15;7.25;;;;;;;;;;5052751;28;20404;-79
2023/12/08 01:30:44;;;;;;;9.10;7.15;;;;;;;;;;5055294;28;20051;-79
2023/12/08 01:33:13;;;;;;;9.02;8.02;;;;;;;;;;5059191;28;20520;-79
2023/12/08 01:35:43;;;;;;;10.52;7.13;;;;;;;;;;5084230;28;20036;-79
2023/12/08 01:38:10;;;;;;;9.65;7.90;;;;;;;;;;5058023;28;20048;-79
2023/12/08 01:40:42;;;;;;;9.48;7.88;;;;;;;;;;5070476;28;20517;-79
2023/12/08 01:43:13;;;;;;;9.77;7.72;;;;;;;;;;5055889;28;20399;-79
2023/12/08 01:45:44;;;;;;;11.30;7.90;;;;;;;;;;5046975;28;20044;-79
2023/12/08 01:48:14;;;;;;;9.90;8.02;;;;;;;;;;5073097;28;20056;-79
2023/12/08 01:50:41;;;;;;;10.27;8.45;;;;;;;;;;5109819;22;20575;-80
2023/12/08 01:53:08;;;;;;;8.60;6.28;;;;;;;;;;5041292;28;20522;-79
2023/12/08 01:55:40;;;;;;;12.95;8.57;;;;;;;;;;5071094;28;20375;-79
2023/12/08 01:58:12;;;;;;;9.60;8.43;;;;;;;;;;5043549;28;20063;-79
2023/12/08 02:00:47;;;;;;;12.38;8.25;;;;;;;;;;5063255;28;20044;-79
2023/12/08 02:03:19;;;;;;;10.77;8.38;;;;;;;;;;5056023;28;20055;-79
2023/12/08 02:05:48;;;;;;;12.52;9.10;;;;;;;;;;5061071;28;20052;-79
2023/12/08 02:08:15;;;;;;;12.55;8.65;;;;;;;;;;5032052;28;20045;-79
2023/12/08 02:10:44;;;;;;;10.88;7.80;;;;;;;;;;5058927;28;20405;-80
2023/12/08 02:13:12;;;;;;;10.48;8.82;;;;;;;;;;5059326;28;20056;-80
2023/12/08 02:15:40;;;;;;;10.55;6.78;;;;;;;;;;5032107;28;20056;-79
2023/12/08 02:18:12;;;;;;;9.60;6.80;;;;;;;;;;5068199;28;20049;-79
2023/12/08 02:20:44;;;;;;;9.48;6.22;;;;;;;;;;5056614;28;20044;-79
2023/12/08 02:23:13;;;;;;;9.82;8.00;;;;;;;;;;5069780;28;20841;-79
2023/12/08 02:25:42;;;;;;;8.20;6.60;;;;;;;;;;5038559;28;20044;-79
2023/12/08 02:28:09;;;;;;;13.35;9.07;;;;;;;;;;5044912;28;20060;-79
2023/12/08 02:30:39;;;;;;;8.82;7.28;;;;;;;;;;5071444;28;20048;-79
2023/12/08 02:33:09;;;;;;;9.38;8.10;;;;;;;;;;5042412;28;20060;-79
2023/12/08 02:35:42;;;;;;;9.18;7.03;;;;;;;;;;5058227;28;20051;-79
2023/12/08 02:38:10;;;;;;;9.93;6.90;;;;;;;;;;5076215;28;20407;-79
2023/12/08 02:40:41;;;;;;;8.85;7.13;;;;;;;;;;5049132;28;20064;-79
2023/12/08 02:43:09;;;;;;;10.15;7.57;;;;;;;;;;5036644;28;20049;-79
2023/12/08 02:45:36;;;;;;;8.57;7.07;;;;;;;;;;5033202;28;20044;-79
2023/12/08 02:48:03;;;;;;;9.25;7.30;;;;;;;;;;5037956;28;20067;-80
2023/12/08 02:50:31;;;;;;;9.52;6.32;;;;;;;;;;5055150;28;20052;-80
2023/12/08 02:53:01;;;;;;;9.27;6.65;;;;;;;;;;5042946;28;20060;-80
2023/12/08 02:55:33;;;;;;;10.07;7.85;;;;;;;;;;5034905;28;20414;-79
2023/12/08 02:58:01;;;;;;;8.98;7.55;;;;;;;;;;5046902;28;20057;-80
2023/12/08 03:00:31;;;;;;;8.02;5.47;;;;;;;;;;5020688;28;20395;-80
2023/12/08 03:02:58;;;;;;;11.77;7.47;;;;;;;;;;5028484;28;20055;-80
2023/12/08 03:05:25;;;;;;;11.52;7.82;;;;;;;;;;5034297;28;20044;-80
2023/12/08 03:07:52;;;;;;;8.85;6.55;;;;;;;;;;5037353;28;20044;-79
2023/12/08 03:10:22;;;;;;;8.75;7.85;;;;;;;;;;5059106;28;20060;-80
2023/12/08 03:12:49;;;;;;;10.30;7.13;;;;;;;;;;5047452;28;20053;-80
2023/12/08 03:15:18;;;;;;;8.65;7.78;;;;;;;;;;5060630;28;20049;-80
2023/12/08 03:17:45;;;;;;;10.30;6.70;;;;;;;;;;5046290;28;20060;-80
2023/12/08 03:20:12;;;;;;;9.07;7.28;;;;;;;;;;5069844;28;20052;-80
2023/12/08 03:22:40;;;;;;;8.77;7.30;;;;;;;;;;5073697;28;20044;-80
2023/12/08 03:25:08;;;;;;;7.43;6.22;;;;;;;;;;5059346;28;20612;-80
2023/12/08 03:27:35;;;;;;;9.20;7.03;;;;;;;;;;5045189;28;20040;-80
2023/12/08 03:30:05;;;;;;;14.05;8.32;;;;;;;;;;5062016;28;20053;-80
2023/12/08 03:32:36;;;;;;;10.40;7.18;;;;;;;;;;5058609;28;20052;-80
2023/12/08 03:35:05;;;;;;;11.10;8.27;;;;;;;;;;5055936;28;20041;-80
2023/12/08 03:37:32;;;;;;;9.70;8.63;;;;;;;;;;5047071;28;20037;-80
2023/12/08 03:40:02;;;;;;;11.30;7.68;;;;;;;;;;5080214;28;20045;-80
2023/12/08 03:42:34;;;;;;;8.88;7.35;;;;;;;;;;5034747;28;20055;-79
2023/12/08 03:45:01;;;;;;;8.32;6.18;;;;;;;;;;5066268;28;20056;-79
2023/12/08 03:47:30;;;;;;;7.70;6.95;;;;;;;;;;5061539;28;20051;-80
2023/12/08 03:50:01;;;;;;;8.05;6.05;;;;;;;;;;5054352;28;20045;-80
2023/12/08 03:52:31;;;;;;;18.45;7.35;;;;;;;;;;5075390;28;20131;-79
2023/12/08 03:54:58;;;;;;;8.30;6.75;;;;;;;;;;5024146;28;20057;-79
2023/12/08 03:57:27;;;;;;;9.70;7.72;;;;;;;;;;5048978;28;20112;-79
2023/12/08 03:59:55;;;;;;;9.75;8.57;;;;;;;;;;5039289;28;20048;-79
2023/12/08 04:02:22;;;;;;;10.57;7.40;;;;;;;;;;5055058;28;20052;-79
2023/12/08 04:04:52;;;;;;;8.25;7.45;;;;;;;;;;5030194;28;20049;-79
2023/12/08 04:07:23;;;;;;;10.00;7.30;;;;;;;;;;5040730;28;20384;-79
2023/12/08 04:09:50;;;;;;;7.72;6.82;;;;;;;;;;5036498;28;20338;-79
2023/12/08 04:12:21;;;;;;;9.23;7.72;;;;;;;;;;5042500;28;20053;-79
2023/12/08 04:14:50;;;;;;;8.85;7.45;;;;;;;;;;5053735;28;20067;-79
2023/12/08 04:17:20;;;;;;;9.90;6.88;;;;;;;;;;5033504;28;20048;-79
2023/12/08 04:19:47;;;;;;;10.07;8.50;;;;;;;;;;5061730;28;20678;-79
2023/12/08 04:22:14;;;;;;;9.65;8.13;;;;;;;;;;5054605;28;20052;-79
2023/12/08 04:24:45;;;;;;;9.60;7.25;;;;;;;;;;5063192;28;20053;-79
2023/12/08 04:27:12;;;;;;;10.27;8.70;;;;;;;;;;5032317;28;20052;-79
2023/12/08 04:29:42;;;;;;;10.23;7.72;;;;;;;;;;5042922;28;20060;-79
2023/12/08 04:32:11;;;;;;;10.38;7.75;;;;;;;;;;5037335;28;20065;-79
2023/12/08 04:34:41;;;;;;;10.20;7.82;;;;;;;;;;5043920;28;20048;-80
2023/12/08 04:37:08;;;;;;;8.23;6.22;;;;;;;;;;5041690;28;20045;-80
2023/12/08 04:39:38;;;;;;;8.75;7.70;;;;;;;;;;5047007;28;20045;-80
2023/12/08 04:42:08;;;;;;;9.95;7.43;;;;;;;;;;5056114;28;20049;-79
2023/12/08 04:44:37;;;;;;;8.27;7.32;;;;;;;;;;5073640;28;20214;-79
2023/12/08 04:47:04;;;;;;;8.98;6.70;;;;;;;;;;5048038;28;20049;-79
2023/12/08 04:49:32;;;;;;;8.55;7.57;;;;;;;;;;5037040;28;20053;-79
2023/12/08 04:52:02;;;;;;;9.43;6.32;;;;;;;;;;5035250;28;20063;-79
2023/12/08 04:54:29;;;;;;;8.02;6.97;;;;;;;;;;5048788;28;20077;-79
2023/12/08 04:56:59;;;;;;;9.80;7.82;;;;;;;;;;5058258;28;20062;-79
2023/12/08 04:59:27;;;;;;;10.10;7.95;;;;;;;;;;5055216;28;20044;-79
2023/12/08 05:01:54;;;;;;;17.88;14.02;;;;;;;;;;5032452;28;20395;-79
2023/12/08 05:04:24;;;;;;;9.73;7.43;;;;;;;;;;5058852;28;20048;-79
2023/12/08 05:06:51;;;;;;;10.57;9.52;;;;;;;;;;5057995;28;20056;-79
2023/12/08 05:09:21;;;;;;;11.02;8.82;;;;;;;;;;5038460;28;20045;-79
2023/12/08 05:11:50;;;;;;;11.52;9.07;;;;;;;;;;5041946;28;20060;-79
2023/12/08 05:14:20;;;;;;;11.13;8.02;;;;;;;;;;5075606;28;20036;-79
2023/12/08 05:16:49;;;;;;;9.75;8.48;;;;;;;;;;5055345;28;20548;-79
2023/12/08 05:19:16;;;;;;;9.95;8.95;;;;;;;;;;5036304;28;20052;-79
2023/12/08 05:21:44;;;;;;;12.90;8.25;;;;;;;;;;5049440;28;20537;-79
2023/12/08 05:24:11;;;;;;;12.50;9.18;;;;;;;;;;5047517;28;20067;-79
2023/12/08 05:26:38;;;;;;;11.63;10.25;;;;;;;;;;5057836;28;20048;-79
2023/12/08 05:29:08;;;;;;;11.45;9.10;;;;;;;;;;5076109;28;20063;-79
2023/12/08 05:31:37;;;;;;;11.93;8.88;;;;;;;;;;5043820;28;20060;-79
2023/12/08 05:34:06;;;;;;;13.60;9.85;;;;;;;;;;5041812;28;20057;-79
2023/12/08 05:36:33;;;;;;;12.88;9.77;;;;;;;;;;5066488;28;20546;-79
2023/12/08 05:39:00;;;;;;;12.68;8.63;;;;;;;;;;5068407;28;20059;-79
2023/12/08 05:41:30;;;;;;;10.30;8.10;;;;;;;;;;5042084;28;20574;-79
2023/12/08 05:43:57;;;;;;;12.27;9.20;;;;;;;;;;5049549;28;20048;-79
2023/12/08 05:46:25;;;;;;;12.25;8.35;;;;;;;;;;5051530;28;20055;-80
2023/12/08 05:48:57;;;;;;;13.18;9.85;;;;;;;;;;5077121;28;20060;-80
2023/12/08 05:51:27;;;;;;;10.27;8.80;;;;;;;;;;5041819;28;20079;-80
2023/12/08 05:54:01;;;;;;;12.98;9.45;;;;;;;;;;5051252;28;20563;-79
2023/12/08 05:56:31;;;;;;;11.10;8.85;;;;;;;;;;5041296;28;20041;-79
2023/12/08 05:59:00;;;;;;;12.95;9.30;;;;;;;;;;5032889;28;20848;-79
2023/12/08 06:01:32;;;;;;;12.27;9.20;;;;;;;;;;5067569;28;20047;-80
2023/12/08 06:04:01;;;;;;;13.02;9.23;;;;;;;;;;5037870;28;20530;-80
2023/12/08 06:06:31;;;;;;;13.70;10.15;;;;;;;;;;5034508;28;20052;-79
2023/12/08 06:08:59;;;;;;;15.75;11.45;;;;;;;;;;5073897;28;20059;-79
2023/12/08 06:11:28;;;;;;;9.80;8.32;;;;;;;;;;5047895;28;20044;-79
2023/12/08 06:13:59;;;;;;;15.52;11.00;;;;;;;;;;5054534;28;20044;-79
2023/12/08 06:16:29;;;;;;;12.98;11.50;;;;;;;;;;5034843;28;20063;-79
2023/12/08 06:18:56;;;;;;;13.18;8.93;;;;;;;;;;5032885;28;20521;-79
2023/12/08 06:21:23;;;;;;;12.48;9.10;;;;;;;;;;5041646;28;20132;-79
2023/12/08 06:23:54;;;;;;;14.18;9.80;;;;;;;;;;5056317;28;20052;-79
2023/12/08 06:26:26;;;;;;;10.23;8.73;;;;;;;;;;5074234;28;20052;-80
2023/12/08 06:28:53;;;;;;;11.10;7.80;;;;;;;;;;5073575;28;20553;-79
2023/12/08 06:31:20;;;;;;;11.70;9.02;;;;;;;;;;5049189;28;20041;-79
2023/12/08 06:33:50;;;;;;;11.55;9.20;;;;;;;;;;5040081;28;20486;-79
2023/12/08 06:36:20;;;;;;;12.65;10.48;;;;;;;;;;5077019;28;20048;-79
2023/12/08 06:38:47;;;;;;;9.75;7.93;;;;;;;;;;5027389;28;20049;-79
2023/12/08 06:41:15;;;;;;;10.80;9.20;;;;;;;;;;5048461;28;20048;-79
2023/12/08 06:43:42;;;;;;;9.50;7.57;;;;;;;;;;5041007;28;20052;-80
2023/12/08 06:46:10;;;;;;;10.25;7.57;;;;;;;;;;5060992;28;20066;-80
2023/12/08 06:48:37;;;;;;;11.82;9.02;;;;;;;;;;5037092;28;20506;-79
2023/12/08 06:51:06;;;;;;;14.05;11.05;;;;;;;;;;5045156;28;20040;-79
2023/12/08 06:53:34;;;;;;;11.85;10.15;;;;;;;;;;5027818;28;20387;-79
2023/12/08 06:56:05;;;;;;;11.63;9.30;;;;;;;;;;5072141;28;20045;-79
2023/12/08 06:58:36;;;;;;;10.13;8.32;;;;;;;;;;5053722;28;20487;-79
2023/12/08 07:01:04;;;;;;;12.05;9.63;;;;;;;;;;5053275;28;20040;-80
2023/12/08 07:03:31;;;;;;;12.23;8.60;;;;;;;;;;5057549;28;20054;-80
2023/12/08 07:05:58;;;;;;;13.07;9.23;;;;;;;;;;5054975;28;20052;-80
2023/12/08 07:08:25;;;;;;;10.30;9.23;;;;;;;;;;5039431;28;20415;-80
2023/12/08 07:10:52;;;;;;;12.40;9.43;;;;;;;;;;5036214;28;20049;-80
2023/12/08 07:13:20;;;;;;;11.95;9.75;;;;;;;;;;5073500;28;20051;-79
2023/12/08 07:15:51;;;;;;;12.43;11.13;;;;;;;;;;5048991;28;20491;-79
2023/12/08 07:18:18;;;;;;;14.15;10.20;;;;;;;;;;5045482;28;20045;-79
2023/12/08 07:20:45;;;;;;;12.23;9.77;;;;;;;;;;5061157;28;20052;-79
2023/12/08 07:23:15;;;;;;;13.32;9.18;;;;;;;;;;5054082;28;20675;-79
2023/12/08 07:25:44;;;;;;;13.70;9.07;;;;;;;;;;5052510;28;20505;-80
2023/12/08 07:28:17;;;;;;;9.77;8.40;;;;;;;;;;5039616;28;20053;-80
2023/12/08 07:30:46;;;;;;;10.43;7.95;;;;;;;;;;5079035;28;20044;-80
2023/12/08 07:33:15;;;;;;;11.63;9.32;;;;;;;;;;5073229;28;20055;-80
2023/12/08 07:35:42;;;;;;;10.60;8.38;;;;;;;;;;5056144;28;20067;-80
2023/12/08 07:38:09;;;;;;;13.85;9.80;;;;;;;;;;5058490;28;20047;-80
2023/12/08 07:40:37;;;;;;;11.48;8.95;;;;;;;;;;5073291;28;20095;-80
2023/12/08 07:43:06;;;;;;;11.85;9.90;;;;;;;;;;5080721;28;20048;-80
2023/12/08 07:45:36;;;;;;;12.75;9.50;;;;;;;;;;5040678;28;20052;-80
2023/12/08 07:48:04;;;;;;;13.35;9.32;;;;;;;;;;5038957;28;20051;-80
2023/12/08 07:50:32;;;;;;;11.75;9.77;;;;;;;;;;5062814;23;20057;-79
2023/12/08 07:53:00;;;;;;;10.35;8.98;;;;;;;;;;5043567;28;20053;-79
2023/12/08 07:55:27;;;;;;;15.25;9.27;;;;;;;;;;5030205;28;20063;-79
2023/12/08 07:57:54;;;;;;;14.30;10.52;;;;;;;;;;5048315;28;20065;-79
2023/12/08 08:00:22;;;;;;;14.70;10.55;;;;;;;;;;5052511;28;20048;-80
2023/12/08 08:02:49;;;;;;;11.90;9.82;;;;;;;;;;5031101;28;20057;-80
2023/12/08 08:05:17;;;;;;;11.38;10.13;;;;;;;;;;5041007;28;20444;-81
2023/12/08 08:07:45;;;;;;;14.10;10.25;;;;;;;;;;5061576;28;20041;-80
2023/12/08 08:10:13;;;;;;;12.77;10.38;;;;;;;;;;5055575;28;20396;-80
2023/12/08 08:12:40;;;;;;;15.90;12.52;;;;;;;;;;5054710;28;20052;-81
2023/12/08 08:15:08;;;;;;;13.05;11.75;;;;;;;;;;5052131;28;20060;-81
2023/12/08 08:17:35;;;;;;;14.63;11.63;;;;;;;;;;5060881;28;20056;-82
2023/12/08 08:20:03;;;;;;;14.00;11.43;;;;;;;;;;5068474;28;20055;-82
2023/12/08 08:22:31;;;;;;;13.27;10.65;;;;;;;;;;5078078;28;20370;-82
2023/12/08 08:24:59;;;;;;;13.00;10.88;;;;;;;;;;5037075;28;20053;-82
2023/12/08 08:27:29;;;;;;;11.90;10.70;;;;;;;;;;5066585;28;20056;-82
2023/12/08 08:29:59;;;;;;;11.00;9.70;;;;;;;;;;5051334;28;20063;-82
2023/12/08 08:32:29;;;;;;;12.70;10.65;;;;;;;;;;5058707;28;20368;-82
2023/12/08 08:34:56;;;;;;;14.23;10.40;;;;;;;;;;5036984;28;20052;-82
2023/12/08 08:37:23;;;;;;;11.05;9.85;;;;;;;;;;5056144;28;20059;-82
2023/12/08 08:39:53;;;;;;;16.65;13.18;;;;;;;;;;5034359;28;20048;-82
2023/12/08 08:42:21;;;;;;;11.98;10.57;;;;;;;;;;5074379;28;20044;-82
2023/12/08 08:44:52;;;;;;;13.55;11.15;;;;;;;;;;5056760;28;20062;-82
2023/12/08 08:47:24;;;;;;;15.48;13.23;;;;;;;;;;5053860;28;20060;-82
2023/12/08 08:49:51;;;;;;;15.02;12.52;;;;;;;;;;5040943;28;20067;-82
2023/12/08 08:52:19;;;;;;;17.00;11.52;;;;;;;;;;5054374;28;20060;-82
2023/12/08 08:54:49;;;;;;;16.33;13.38;;;;;;;;;;5059760;28;20048;-82
2023/12/08 08:57:18;;;;;;;15.23;12.35;;;;;;;;;;5070545;28;20048;-82
2023/12/08 08:59:49;;;;;;;13.70;10.93;;;;;;;;;;5061486;28;20534;-82
2023/12/08 09:02:17;;;;;;;14.07;10.68;;;;;;;;;;5055847;28;20060;-82
2023/12/08 09:04:44;;;;;;;16.85;12.77;;;;;;;;;;5065556;28;20072;-82
2023/12/08 09:07:11;;;;;;;17.95;11.88;;;;;;;;;;5064550;28;20049;-82
2023/12/08 09:09:39;;;;;;;15.10;12.00;;;;;;;;;;5051339;28;20041;-82
2023/12/08 09:12:08;;;;;;;15.48;13.00;;;;;;;;;;5050418;28;20056;-82
2023/12/08 09:14:41;;;;;;;16.15;12.32;;;;;;;;;;5074172;28;20087;-82
2023/12/08 09:17:12;;;;;;;14.32;12.40;;;;;;;;;;5059103;28;20155;-82
2023/12/08 09:19:39;;;;;;;14.30;10.90;;;;;;;;;;5082714;28;20041;-82
2023/12/08 09:22:07;;;;;;;14.60;11.40;;;;;;;;;;5076677;28;20056;-82
2023/12/08 09:24:37;;;;;;;19.45;14.18;;;;;;;;;;5079449;28;20048;-82
2023/12/08 09:27:06;;;;;;;17.00;13.52;;;;;;;;;;5077107;28;20052;-82
2023/12/08 09:29:34;;;;;;;15.13;13.05;;;;;;;;;;5074416;28;20052;-82
2023/12/08 09:32:01;;;;;;;14.25;11.27;;;;;;;;;;5039759;28;20063;-82
2023/12/08 09:34:29;;;;;;;15.55;12.07;;;;;;;;;;5054562;28;20056;-82
2023/12/08 09:36:57;;;;;;;15.88;12.35;;;;;;;;;;5072882;28;20048;-82
2023/12/08 09:39:25;;;;;;;15.35;11.98;;;;;;;;;;5059488;28;20055;-82
2023/12/08 09:41:56;;;;;;;13.55;12.15;;;;;;;;;;5047040;28;20062;-82
2023/12/08 09:44:23;;;;;;;13.98;12.52;;;;;;;;;;5046796;28;20040;-82
2023/12/08 09:46:55;;;;;;;18.15;13.15;;;;;;;;;;5066693;28;20070;-82
2023/12/08 09:49:30;;;;;;;16.50;12.68;;;;;;;;;;5036152;28;20056;-82
2023/12/08 09:52:00;;;;;;;15.30;12.32;;;;;;;;;;5048900;28;20123;-82
2023/12/08 09:54:28;;;;;;;17.45;12.32;;;;;;;;;;5031268;28;20044;-82
2023/12/08 09:56:58;;;;;;;17.50;13.77;;;;;;;;;;5076623;28;20051;-82
2023/12/08 09:59:29;;;;;;;16.05;13.38;;;;;;;;;;5039844;28;20045;-82
2023/12/08 10:01:56;;;;;;;18.95;14.05;;;;;;;;;;5080327;28;20052;-82
2023/12/08 10:04:26;;;;;;;21.27;14.38;;;;;;;;;;5070225;28;20055;-82
2023/12/08 10:06:57;;;;;;;16.85;11.50;;;;;;;;;;5080084;28;20048;-82
2023/12/08 10:09:25;;;;;;;21.15;14.50;;;;;;;;;;5078006;28;20052;-82
2023/12/08 10:11:55;;;;;;;17.33;13.23;;;;;;;;;;5058328;28;20051;-82
2023/12/08 10:14:22;;;;;;;18.10;11.32;;;;;;;;;;5046849;28;20064;-82
2023/12/08 10:16:49;;;;;;;16.88;13.38;;;;;;;;;;5040780;28;20041;-81
2023/12/08 10:19:21;;;;;;;14.93;13.43;;;;;;;;;;5049144;28;20044;-81
2023/12/08 10:21:59;;;;;;;14.57;11.43;;;;;;;;;;5081473;28;20509;-81
2023/12/08 10:24:28;;;;;;;16.52;11.30;;;;;;;;;;5048392;28;20059;-81
2023/12/08 10:26:55;;;;;;;17.23;12.68;;;;;;;;;;5043446;28;20060;-81
2023/12/08 10:29:22;;;;;;;17.88;11.52;;;;;;;;;;5037682;28;20051;-81
2023/12/08 10:31:53;;;;;;;17.90;14.50;;;;;;;;;;5047637;28;20048;-82
2023/12/08 10:34:25;;;;;;;15.93;12.82;;;;;;;;;;5042007;28;20050;-82
2023/12/08 10:36:53;;;;;;;14.90;11.65;;;;;;;;;;5065688;28;20048;-82
2023/12/08 10:39:25;;;;;;;16.92;13.90;;;;;;;;;;5061378;28;20056;-82
2023/12/08 10:41:55;;;;;;;16.42;12.07;;;;;;;;;;5050204;28;20393;-82
2023/12/08 10:44:25;;;;;;;16.83;12.13;;;;;;;;;;5059692;28;20055;-82
2023/12/08 10:46:52;;;;;;;16.88;13.32;;;;;;;;;;5041666;28;20056;-82
2023/12/08 10:49:22;;;;;;;18.05;13.32;;;;;;;;;;5072529;28;20410;-82
2023/12/08 10:51:52;;;;;;;13.77;11.02;;;;;;;;;;5060208;28;20051;-82
2023/12/08 10:54:25;;;;;;;16.73;12.55;;;;;;;;;;5038277;28;20059;-82
2023/12/08 10:56:52;;;;;;;18.85;11.48;;;;;;;;;;5057506;28;20051;-82
2023/12/08 10:59:24;;;;;;;14.50;12.27;;;;;;;;;;5061311;28;20057;-82
2023/12/08 11:01:53;;;;;;;16.65;12.75;;;;;;;;;;5068642;28;20032;-82
2023/12/08 11:04:22;;;;;;;14.38;11.38;;;;;;;;;;5068203;28;20052;-82
2023/12/08 11:06:55;;;;;;;;;;;;;;;;;;5069792;28;20032;-82
2023/12/08 11:09:26;;;;;;;16.20;12.38;;;;;;;;;;5050033;28;20179;-82
2023/12/08 11:11:55;;;;;;;17.65;13.18;;;;;;;;;;5040656;28;20052;-82
2023/12/08 11:14:29;;;;;;;18.75;12.30;;;;;;;;;;5039276;28;20047;-82
2023/12/08 11:17:00;;;;;;;14.02;12.10;;;;;;;;;;5031671;28;20518;-82
2023/12/08 11:19:28;;;;;;;14.50;11.85;;;;;;;;;;5043904;28;20044;-82
2023/12/08 11:21:56;;;;;;;17.30;12.30;;;;;;;;;;5031295;28;20494;-82
2023/12/08 11:24:30;;;;;;;18.63;13.68;;;;;;;;;;5070224;28;20056;-82
2023/12/08 11:27:01;;;;;;;20.42;13.90;;;;;;;;;;5045865;28;20056;-82
2023/12/08 11:29:35;;;;;;;18.83;14.07;;;;;;;;;;5072139;28;20041;-82
2023/12/08 11:32:09;;;;;;;16.27;12.80;;;;;;;;;;5066624;28;20052;-82
2023/12/08 11:34:46;;;;;;;18.75;13.32;;;;;;;;;;5040581;28;20063;-82
2023/12/08 11:37:13;;;;;;;18.10;13.80;;;;;;;;;;5044969;28;20052;-82
2023/12/08 11:39:45;;;;;;;18.00;13.43;;;;;;;;;;5064330;28;20523;-82
2023/12/08 11:42:16;;;;;;;18.08;14.20;;;;;;;;;;5064416;28;20044;-82
2023/12/08 11:44:47;;;;;;;16.48;13.10;;;;;;;;;;5032884;28;20426;-82
2023/12/08 11:47:20;;;;;;;18.52;12.57;;;;;;;;;;5033115;28;20049;-82
2023/12/08 11:49:49;;;;;;;20.75;16.10;;;;;;;;;;5049713;28;20055;-82
2023/12/08 11:52:20;;;;;;;17.48;15.63;;;;;;;;;;5046896;28;20060;-82
2023/12/08 11:55:00;;;;;;;21.63;15.55;;;;;;;;;;5045948;28;20045;-82
2023/12/08 11:57:28;;;;;;;20.45;14.15;;;;;;;;;;5069977;28;20044;-82
2023/12/08 11:59:57;;;;;;;23.02;14.20;;;;;;;;;;5030533;28;20052;-82
2023/12/08 12:02:24;;;;;;;18.00;13.50;;;;;;;;;;5044801;28;20060;-82
2023/12/08 12:04:56;;;;;;;15.50;13.65;;;;;;;;;;5031164;28;20056;-82
2023/12/08 12:07:24;;;;;;;16.92;14.13;;;;;;;;;;5060343;28;20066;-82
2023/12/08 12:09:54;;;;;;;19.15;12.13;;;;;;;;;;5050341;28;20052;-82
2023/12/08 12:12:28;;;;;;;15.88;13.77;;;;;;;;;;5036485;28;20049;-82
2023/12/08 12:14:57;;;;;;;16.60;12.63;;;;;;;;;;5067654;28;20048;-82
2023/12/08 12:17:26;;;;;;;16.17;13.10;;;;;;;;;;5067832;28;20036;-82
2023/12/08 12:19:56;;;;;;;16.58;13.02;;;;;;;;;;5057773;28;20064;-83
2023/12/08 12:22:26;;;;;;;16.98;13.02;;;;;;;;;;5056401;28;20059;-82
2023/12/08 12:24:55;;;;;;;15.90;14.00;;;;;;;;;;5053505;28;20045;-82
2023/12/08 12:27:26;;;;;;;17.10;12.80;;;;;;;;;;5074801;28;20498;-83
2023/12/08 12:29:56;;;;;;;19.58;13.77;;;;;;;;;;5057026;28;20079;-83
2023/12/08 12:32:23;;;;;;;18.23;13.38;;;;;;;;;;5056154;28;20522;-82
2023/12/08 12:34:53;;;;;;;16.58;14.88;;;;;;;;;;5071891;28;20055;-82
2023/12/08 12:37:21;;;;;;;16.65;12.88;;;;;;;;;;5067072;28;20052;-82
2023/12/08 12:39:51;;;;;;;15.68;14.02;;;;;;;;;;5068182;28;20056;-82
2023/12/08 12:42:20;;;;;;;18.33;13.63;;;;;;;;;;5068350;28;20565;-82
2023/12/08 12:44:49;;;;;;;18.60;14.25;;;;;;;;;;5053581;28;20049;-82
2023/12/08 12:47:22;;;;;;;21.85;14.98;;;;;;;;;;5061992;28;20068;-82
2023/12/08 12:50:04;;;;;;;17.48;14.63;;;;;;;;;;5061313;28;20375;-82
2023/12/08 12:52:32;;;;;;;15.18;12.38;;;;;;;;;;5080829;28;20067;-82
2023/12/08 12:55:02;;;;;;;17.42;13.70;;;;;;;;;;5034528;28;20051;-82
2023/12/08 12:57:41;;;;;;;17.67;13.15;;;;;;;;;;5050296;28;20057;-82
2023/12/08 13:00:11;;;;;;;16.83;12.35;;;;;;;;;;5033386;28;20044;-82
2023/12/08 13:02:39;;;;;;;18.23;13.35;;;;;;;;;;5043157;28;20055;-82
2023/12/08 13:05:10;;;;;;;17.90;14.70;;;;;;;;;;5054394;28;20040;-82
2023/12/08 13:07:38;;;;;;;17.27;14.25;;;;;;;;;;5059249;28;20062;-82
2023/12/08 13:10:10;;;;;;;17.10;14.30;;;;;;;;;;5056308;28;20051;-83
2023/12/08 13:12:38;;;;;;;20.90;15.48;;;;;;;;;;5028526;28;20064;-82
2023/12/08 13:15:06;;;;;;;22.23;16.13;;;;;;;;;;5058382;28;20037;-82
2023/12/08 13:17:34;;;;;;;18.63;14.25;;;;;;;;;;5067033;28;20055;-81
2023/12/08 13:20:09;;;;;;;16.05;13.57;;;;;;;;;;5037870;28;20060;-82
2023/12/08 13:22:36;;;;;;;19.13;14.88;;;;;;;;;;5044481;28;20406;-81
2023/12/08 13:25:05;;;;;;;20.20;14.50;;;;;;;;;;5054509;28;20044;-82
2023/12/08 13:27:32;;;;;;;17.85;12.82;;;;;;;;;;5052202;28;20033;-82
2023/12/08 13:29:59;;;;;;;18.10;13.38;;;;;;;;;;5035973;28;20053;-82
2023/12/08 13:32:34;;;;;;;17.88;12.88;;;;;;;;;;5073147;28;20040;-82
2023/12/08 13:35:05;;;;;;;14.90;13.38;;;;;;;;;;5034406;28;20045;-82
2023/12/08 13:37:32;;;;;;;13.55;12.13;;;;;;;;;;5029437;28;21858;-82
2023/12/08 13:39:59;;;;;;;16.48;13.93;;;;;;;;;;5031607;28;20049;-82
2023/12/08 13:42:29;;;;;;;21.75;16.65;;;;;;;;;;5037332;28;20475;-82
2023/12/08 13:44:58;;;;;;;17.92;14.43;;;;;;;;;;5053563;28;20053;-83
2023/12/08 13:47:28;;;;;;;16.67;13.68;;;;;;;;;;5055255;28;20067;-82
2023/12/08 13:49:57;;;;;;;20.98;15.65;;;;;;;;;;5041899;28;20044;-82
2023/12/08 13:52:34;;;;;;;;;;;;;;;;;;;;;
2023/12/08 13:55:11;;;;;;;17.90;15.95;;;;;;;;;;5041263;28;20706;-79
2023/12/08 13:57:38;;;;;;;20.58;17.20;;;;;;;;;;5043903;28;20479;-78
2023/12/08 14:00:08;;;;;;;19.48;15.80;;;;;;;;;;5028945;28;20064;-78
2023/12/08 14:02:36;;;;;;;21.30;15.85;;;;;;;;;;5007994;28;20044;-78
2023/12/08 14:05:09;;;;;;;17.73;15.23;;;;;;;;;;5047064;28;20964;-79
2023/12/08 14:07:41;;;;;;;18.50;14.63;;;;;;;;;;5030236;28;20056;-79
2023/12/08 14:10:11;;;;;;;18.13;16.05;;;;;;;;;;5020102;28;20391;-79
2023/12/08 14:12:43;;;;;;;22.13;16.73;;;;;;;;;;5036635;28;20064;-79
2023/12/08 14:15:12;;;;;;;18.92;15.23;;;;;;;;;;5018244;28;20053;-79
2023/12/08 14:17:39;;;;;;;22.42;17.60;;;;;;;;;;5022819;28;20055;-79
2023/12/08 14:20:11;;;;;;;17.50;13.55;;;;;;;;;;5036728;28;20053;-79
2023/12/08 14:22:39;;;;;;;20.23;15.23;;;;;;;;;;5056467;28;20040;-79
2023/12/08 14:25:07;;;;;;;20.80;15.75;;;;;;;;;;5014768;28;20056;-79
2023/12/08 14:27:34;;;;;;;17.67;14.68;;;;;;;;;;5037274;28;20498;-79
2023/12/08 14:30:01;;;;;;;18.60;16.30;;;;;;;;;;5035709;28;20061;-79
2023/12/08 14:32:28;;;;;;;17.30;13.70;;;;;;;;;;5018121;28;20044;-79
2023/12/08 14:34:56;;;;;;;19.95;17.02;;;;;;;;;;5020956;28;20059;-79
2023/12/08 14:37:27;;;;;;;21.60;15.27;;;;;;;;;;5057196;28;20055;-79
2023/12/08 14:39:54;;;;;;;19.70;14.38;;;;;;;;;;5033890;28;20503;-79